sensor_id;sensor_type;location;lat;lon;timestamp;P1;durP1;ratioP1;P2;durP2;ratioP2
7402;SDS011;3742;48.770;11.440;2022-12-04T00:02:00;17.00;;;11.10;;
7402;SDS011;3742;48.770;11.440;2022-12-04T00:04:29;17.83;;;11.77;;
7402;SDS011;3742;48.770;11.440;2022-12-04T00:06:59;16.67;;;11.40;;
7402;SDS011;3742;48.770;11.440;2022-12-04T00:09:27;17.80;;;11.80;;
7402;SDS011;3742;48.770;11.440;2022-12-04T00:11:56;17.53;;;11.83;;
7402;SDS011;3742;48.770;11.440;2022-12-04T00:14:24;15.70;;;11.07;;
7402;SDS011;3742;48.770;11.440;2022-12-04T00:16:53;16.20;;;12.30;;
7402;SDS011;3742;48.770;11.440;2022-12-04T00:19:21;15.50;;;10.83;;
7402;SDS011;3742;48.770;11.440;2022-12-04T00:21:50;19.27;;;12.07;;
7402;SDS011;3742;48.770;11.440;2022-12-04T00:24:20;17.43;;;11.50;;
7402;SDS011;3742;48.770;11.440;2022-12-04T00:26:49;16.60;;;11.43;;
7402;SDS011;3742;48.770;11.440;2022-12-04T00:29:18;14.67;;;11.30;;
7402;SDS011;3742;48.770;11.440;2022-12-04T00:31:47;16.03;;;11.07;;
7402;SDS011;3742;48.770;11.440;2022-12-04T00:34:15;16.03;;;11.60;;
7402;SDS011;3742;48.770;11.440;2022-12-04T00:36:44;14.83;;;11.10;;
7402;SDS011;3742;48.770;11.440;2022-12-04T00:39:13;16.40;;;11.13;;
7402;SDS011;3742;48.770;11.440;2022-12-04T00:41:43;14.47;;;10.03;;
7402;SDS011;3742;48.770;11.440;2022-12-04T00:44:11;14.07;;;10.87;;
7402;SDS011;3742;48.770;11.440;2022-12-04T00:46:40;14.80;;;10.60;;
7402;SDS011;3742;48.770;11.440;2022-12-04T00:49:08;15.27;;;10.63;;
7402;SDS011;3742;48.770;11.440;2022-12-04T00:51:37;14.90;;;9.03;;
7402;SDS011;3742;48.770;11.440;2022-12-04T00:54:06;15.73;;;11.40;;
7402;SDS011;3742;48.770;11.440;2022-12-04T00:56:34;16.93;;;11.00;;
7402;SDS011;3742;48.770;11.440;2022-12-04T00:59:04;15.63;;;10.63;;
7402;SDS011;3742;48.770;11.440;2022-12-04T01:01:33;16.90;;;11.97;;
7402;SDS011;3742;48.770;11.440;2022-12-04T01:04:01;17.67;;;11.77;;
7402;SDS011;3742;48.770;11.440;2022-12-04T01:06:30;14.73;;;10.57;;
7402;SDS011;3742;48.770;11.440;2022-12-04T01:09:01;16.43;;;11.53;;
7402;SDS011;3742;48.770;11.440;2022-12-04T01:11:31;16.43;;;11.37;;
7402;SDS011;3742;48.770;11.440;2022-12-04T01:14:00;16.10;;;11.00;;
7402;SDS011;3742;48.770;11.440;2022-12-04T01:16:31;17.03;;;12.17;;
7402;SDS011;3742;48.770;11.440;2022-12-04T01:19:01;17.30;;;11.67;;
7402;SDS011;3742;48.770;11.440;2022-12-04T01:21:30;15.07;;;10.70;;
7402;SDS011;3742;48.770;11.440;2022-12-04T01:23:58;17.80;;;10.93;;
7402;SDS011;3742;48.770;11.440;2022-12-04T01:26:27;13.43;;;10.03;;
7402;SDS011;3742;48.770;11.440;2022-12-04T01:28:56;14.27;;;10.20;;
7402;SDS011;3742;48.770;11.440;2022-12-04T01:31:25;16.53;;;10.43;;
7402;SDS011;3742;48.770;11.440;2022-12-04T01:33:55;16.47;;;11.57;;
7402;SDS011;3742;48.770;11.440;2022-12-04T01:36:24;17.53;;;11.23;;
7402;SDS011;3742;48.770;11.440;2022-12-04T01:38:53;17.33;;;11.53;;
7402;SDS011;3742;48.770;11.440;2022-12-04T01:41:23;16.60;;;11.30;;
7402;SDS011;3742;48.770;11.440;2022-12-04T01:44:06;17.80;;;11.73;;
7402;SDS011;3742;48.770;11.440;2022-12-04T01:46:36;14.13;;;10.37;;
7402;SDS011;3742;48.770;11.440;2022-12-04T01:49:06;16.03;;;9.80;;
7402;SDS011;3742;48.770;11.440;2022-12-04T01:51:38;15.03;;;11.40;;
7402;SDS011;3742;48.770;11.440;2022-12-04T01:54:09;17.83;;;11.03;;
7402;SDS011;3742;48.770;11.440;2022-12-04T01:56:42;16.27;;;11.10;;
7402;SDS011;3742;48.770;11.440;2022-12-04T01:59:13;16.90;;;12.93;;
7402;SDS011;3742;48.770;11.440;2022-12-04T02:01:43;17.27;;;11.10;;
7402;SDS011;3742;48.770;11.440;2022-12-04T02:04:19;16.33;;;10.63;;
7402;SDS011;3742;48.770;11.440;2022-12-04T02:06:47;16.03;;;11.17;;
7402;SDS011;3742;48.770;11.440;2022-12-04T02:09:16;15.73;;;10.80;;
7402;SDS011;3742;48.770;11.440;2022-12-04T02:11:54;18.37;;;11.57;;
7402;SDS011;3742;48.770;11.440;2022-12-04T02:14:29;15.00;;;11.70;;
7402;SDS011;3742;48.770;11.440;2022-12-04T02:17:01;14.83;;;9.53;;
7402;SDS011;3742;48.770;11.440;2022-12-04T02:19:42;15.37;;;11.33;;
7402;SDS011;3742;48.770;11.440;2022-12-04T02:22:37;16.37;;;11.70;;
7402;SDS011;3742;48.770;11.440;2022-12-04T02:25:20;16.83;;;11.90;;
7402;SDS011;3742;48.770;11.440;2022-12-04T02:27:56;14.97;;;11.23;;
7402;SDS011;3742;48.770;11.440;2022-12-04T02:30:29;16.80;;;11.70;;
7402;SDS011;3742;48.770;11.440;2022-12-04T02:32:59;16.13;;;11.13;;
7402;SDS011;3742;48.770;11.440;2022-12-04T02:35:30;18.00;;;12.27;;
7402;SDS011;3742;48.770;11.440;2022-12-04T02:38:02;16.07;;;10.97;;
7402;SDS011;3742;48.770;11.440;2022-12-04T02:40:36;18.33;;;11.90;;
7402;SDS011;3742;48.770;11.440;2022-12-04T02:43:10;17.83;;;12.17;;
7402;SDS011;3742;48.770;11.440;2022-12-04T02:45:43;20.50;;;12.70;;
7402;SDS011;3742;48.770;11.440;2022-12-04T02:48:14;18.23;;;12.23;;
7402;SDS011;3742;48.770;11.440;2022-12-04T02:50:44;19.50;;;12.40;;
7402;SDS011;3742;48.770;11.440;2022-12-04T02:53:15;23.93;;;13.30;;
7402;SDS011;3742;48.770;11.440;2022-12-04T02:55:46;21.67;;;13.43;;
7402;SDS011;3742;48.770;11.440;2022-12-04T02:58:20;22.10;;;13.80;;
7402;SDS011;3742;48.770;11.440;2022-12-04T03:00:53;20.93;;;13.30;;
7402;SDS011;3742;48.770;11.440;2022-12-04T03:03:24;20.93;;;13.87;;
7402;SDS011;3742;48.770;11.440;2022-12-04T03:05:54;20.33;;;13.27;;
7402;SDS011;3742;48.770;11.440;2022-12-04T03:08:27;19.00;;;12.67;;
7402;SDS011;3742;48.770;11.440;2022-12-04T03:10:58;25.70;;;13.50;;
7402;SDS011;3742;48.770;11.440;2022-12-04T03:13:30;21.83;;;13.50;;
7402;SDS011;3742;48.770;11.440;2022-12-04T03:16:03;20.57;;;13.17;;
7402;SDS011;3742;48.770;11.440;2022-12-04T03:18:36;20.03;;;13.50;;
7402;SDS011;3742;48.770;11.440;2022-12-04T03:21:07;18.03;;;12.57;;
7402;SDS011;3742;48.770;11.440;2022-12-04T03:23:39;22.13;;;13.70;;
7402;SDS011;3742;48.770;11.440;2022-12-04T03:26:12;17.23;;;10.53;;
7402;SDS011;3742;48.770;11.440;2022-12-04T03:28:48;19.47;;;12.53;;
7402;SDS011;3742;48.770;11.440;2022-12-04T03:31:21;22.23;;;13.17;;
7402;SDS011;3742;48.770;11.440;2022-12-04T03:33:53;18.27;;;12.40;;
7402;SDS011;3742;48.770;11.440;2022-12-04T03:36:23;19.33;;;12.87;;
7402;SDS011;3742;48.770;11.440;2022-12-04T03:38:56;20.70;;;12.77;;
7402;SDS011;3742;48.770;11.440;2022-12-04T03:41:28;15.90;;;11.90;;
7402;SDS011;3742;48.770;11.440;2022-12-04T03:44:05;16.97;;;12.00;;
7402;SDS011;3742;48.770;11.440;2022-12-04T03:46:38;17.00;;;12.20;;
7402;SDS011;3742;48.770;11.440;2022-12-04T03:49:10;16.30;;;11.07;;
7402;SDS011;3742;48.770;11.440;2022-12-04T03:51:42;13.83;;;10.73;;
7402;SDS011;3742;48.770;11.440;2022-12-04T03:54:15;15.13;;;10.43;;
7402;SDS011;3742;48.770;11.440;2022-12-04T03:56:46;16.17;;;10.50;;
7402;SDS011;3742;48.770;11.440;2022-12-04T03:59:18;13.00;;;9.63;;
7402;SDS011;3742;48.770;11.440;2022-12-04T04:01:51;15.27;;;10.73;;
7402;SDS011;3742;48.770;11.440;2022-12-04T04:04:21;13.57;;;10.23;;
7402;SDS011;3742;48.770;11.440;2022-12-04T04:06:56;14.27;;;10.93;;
7402;SDS011;3742;48.770;11.440;2022-12-04T04:09:27;13.77;;;10.40;;
7402;SDS011;3742;48.770;11.440;2022-12-04T04:11:59;18.10;;;10.93;;
7402;SDS011;3742;48.770;11.440;2022-12-04T04:14:33;12.57;;;9.80;;
7402;SDS011;3742;48.770;11.440;2022-12-04T04:17:24;15.97;;;11.27;;
7402;SDS011;3742;48.770;11.440;2022-12-04T04:20:29;15.50;;;10.70;;
7402;SDS011;3742;48.770;11.440;2022-12-04T04:23:19;13.03;;;9.23;;
7402;SDS011;3742;48.770;11.440;2022-12-04T04:26:06;13.57;;;10.30;;
7402;SDS011;3742;48.770;11.440;2022-12-04T04:28:36;15.57;;;11.40;;
7402;SDS011;3742;48.770;11.440;2022-12-04T04:31:09;13.83;;;10.17;;
7402;SDS011;3742;48.770;11.440;2022-12-04T04:33:43;13.90;;;9.87;;
7402;SDS011;3742;48.770;11.440;2022-12-04T04:36:17;13.17;;;10.53;;
7402;SDS011;3742;48.770;11.440;2022-12-04T04:38:52;10.17;;;8.43;;
7402;SDS011;3742;48.770;11.440;2022-12-04T04:41:27;13.47;;;9.47;;
7402;SDS011;3742;48.770;11.440;2022-12-04T04:44:02;12.97;;;9.20;;
7402;SDS011;3742;48.770;11.440;2022-12-04T04:46:40;14.57;;;9.33;;
7402;SDS011;3742;48.770;11.440;2022-12-04T04:49:13;11.60;;;9.43;;
7402;SDS011;3742;48.770;11.440;2022-12-04T04:51:42;13.67;;;10.07;;
7402;SDS011;3742;48.770;11.440;2022-12-04T04:54:12;12.30;;;9.63;;
7402;SDS011;3742;48.770;11.440;2022-12-04T04:56:42;12.10;;;9.30;;
7402;SDS011;3742;48.770;11.440;2022-12-04T04:59:12;14.43;;;10.50;;
7402;SDS011;3742;48.770;11.440;2022-12-04T05:01:43;13.50;;;8.97;;
7402;SDS011;3742;48.770;11.440;2022-12-04T05:04:13;15.00;;;10.33;;
7402;SDS011;3742;48.770;11.440;2022-12-04T05:06:42;13.57;;;9.87;;
7402;SDS011;3742;48.770;11.440;2022-12-04T05:09:10;12.73;;;10.37;;
7402;SDS011;3742;48.770;11.440;2022-12-04T05:11:39;12.37;;;8.97;;
7402;SDS011;3742;48.770;11.440;2022-12-04T05:14:07;15.43;;;11.07;;
7402;SDS011;3742;48.770;11.440;2022-12-04T05:16:37;15.37;;;10.40;;
7402;SDS011;3742;48.770;11.440;2022-12-04T05:19:07;13.90;;;10.47;;
7402;SDS011;3742;48.770;11.440;2022-12-04T05:21:53;14.60;;;10.23;;
7402;SDS011;3742;48.770;11.440;2022-12-04T05:24:23;13.53;;;10.30;;
7402;SDS011;3742;48.770;11.440;2022-12-04T05:26:51;13.67;;;10.03;;
7402;SDS011;3742;48.770;11.440;2022-12-04T05:29:20;15.17;;;11.00;;
7402;SDS011;3742;48.770;11.440;2022-12-04T05:31:48;15.83;;;12.90;;
7402;SDS011;3742;48.770;11.440;2022-12-04T05:34:18;12.17;;;9.10;;
7402;SDS011;3742;48.770;11.440;2022-12-04T05:36:47;14.03;;;10.33;;
7402;SDS011;3742;48.770;11.440;2022-12-04T05:39:15;12.90;;;8.90;;
7402;SDS011;3742;48.770;11.440;2022-12-04T05:41:44;14.93;;;10.87;;
7402;SDS011;3742;48.770;11.440;2022-12-04T05:44:13;16.00;;;10.27;;
7402;SDS011;3742;48.770;11.440;2022-12-04T05:46:42;14.70;;;10.00;;
7402;SDS011;3742;48.770;11.440;2022-12-04T05:49:11;14.50;;;10.23;;
7402;SDS011;3742;48.770;11.440;2022-12-04T05:51:41;15.97;;;11.00;;
7402;SDS011;3742;48.770;11.440;2022-12-04T05:54:09;15.83;;;10.90;;
7402;SDS011;3742;48.770;11.440;2022-12-04T05:56:38;15.40;;;10.90;;
7402;SDS011;3742;48.770;11.440;2022-12-04T05:59:06;15.47;;;11.00;;
7402;SDS011;3742;48.770;11.440;2022-12-04T06:01:35;14.90;;;10.77;;
7402;SDS011;3742;48.770;11.440;2022-12-04T06:04:04;13.03;;;10.13;;
7402;SDS011;3742;48.770;11.440;2022-12-04T06:06:33;14.77;;;10.80;;
7402;SDS011;3742;48.770;11.440;2022-12-04T06:09:03;15.87;;;11.63;;
7402;SDS011;3742;48.770;11.440;2022-12-04T06:11:33;15.87;;;11.53;;
7402;SDS011;3742;48.770;11.440;2022-12-04T06:14:04;17.27;;;11.60;;
7402;SDS011;3742;48.770;11.440;2022-12-04T06:16:34;16.13;;;11.10;;
7402;SDS011;3742;48.770;11.440;2022-12-04T06:19:05;15.80;;;10.53;;
7402;SDS011;3742;48.770;11.440;2022-12-04T06:21:35;15.60;;;11.20;;
7402;SDS011;3742;48.770;11.440;2022-12-04T06:24:06;15.13;;;10.93;;
7402;SDS011;3742;48.770;11.440;2022-12-04T06:26:35;17.93;;;11.50;;
7402;SDS011;3742;48.770;11.440;2022-12-04T06:29:23;17.73;;;12.10;;
7402;SDS011;3742;48.770;11.440;2022-12-04T06:31:52;15.70;;;11.67;;
7402;SDS011;3742;48.770;11.440;2022-12-04T06:34:21;17.67;;;11.40;;
7402;SDS011;3742;48.770;11.440;2022-12-04T06:36:49;15.40;;;11.40;;
7402;SDS011;3742;48.770;11.440;2022-12-04T06:39:19;17.60;;;12.67;;
7402;SDS011;3742;48.770;11.440;2022-12-04T06:41:48;19.57;;;16.77;;
7402;SDS011;3742;48.770;11.440;2022-12-04T06:44:16;16.70;;;11.27;;
7402;SDS011;3742;48.770;11.440;2022-12-04T06:46:45;15.20;;;11.33;;
7402;SDS011;3742;48.770;11.440;2022-12-04T06:49:16;15.77;;;11.47;;
7402;SDS011;3742;48.770;11.440;2022-12-04T06:51:48;14.83;;;10.53;;
7402;SDS011;3742;48.770;11.440;2022-12-04T06:54:17;14.93;;;9.87;;
7402;SDS011;3742;48.770;11.440;2022-12-04T06:56:47;15.53;;;9.83;;
7402;SDS011;3742;48.770;11.440;2022-12-04T06:59:16;16.93;;;11.10;;
7402;SDS011;3742;48.770;11.440;2022-12-04T07:01:44;13.97;;;10.67;;
7402;SDS011;3742;48.770;11.440;2022-12-04T07:04:13;12.93;;;10.53;;
7402;SDS011;3742;48.770;11.440;2022-12-04T07:06:42;18.47;;;14.50;;
7402;SDS011;3742;48.770;11.440;2022-12-04T07:09:12;14.50;;;10.73;;
7402;SDS011;3742;48.770;11.440;2022-12-04T07:11:43;13.97;;;10.97;;
7402;SDS011;3742;48.770;11.440;2022-12-04T07:14:13;15.57;;;10.47;;
7402;SDS011;3742;48.770;11.440;2022-12-04T07:16:42;15.47;;;11.10;;
7402;SDS011;3742;48.770;11.440;2022-12-04T07:19:11;14.13;;;10.23;;
7402;SDS011;3742;48.770;11.440;2022-12-04T07:21:41;13.20;;;10.47;;
7402;SDS011;3742;48.770;11.440;2022-12-04T07:24:10;13.93;;;10.47;;
7402;SDS011;3742;48.770;11.440;2022-12-04T07:26:41;13.50;;;10.77;;
7402;SDS011;3742;48.770;11.440;2022-12-04T07:29:10;13.97;;;10.57;;
7402;SDS011;3742;48.770;11.440;2022-12-04T07:31:40;13.27;;;10.10;;
7402;SDS011;3742;48.770;11.440;2022-12-04T07:34:10;13.67;;;10.97;;
7402;SDS011;3742;48.770;11.440;2022-12-04T07:36:39;15.23;;;13.03;;
7402;SDS011;3742;48.770;11.440;2022-12-04T07:39:07;9.73;;;7.90;;
7402;SDS011;3742;48.770;11.440;2022-12-04T07:41:36;8.90;;;7.43;;
7402;SDS011;3742;48.770;11.440;2022-12-04T07:44:06;10.17;;;6.63;;
7402;SDS011;3742;48.770;11.440;2022-12-04T07:46:35;10.13;;;6.93;;
7402;SDS011;3742;48.770;11.440;2022-12-04T07:49:05;7.73;;;6.83;;
7402;SDS011;3742;48.770;11.440;2022-12-04T07:51:33;11.23;;;9.27;;
7402;SDS011;3742;48.770;11.440;2022-12-04T07:54:02;10.57;;;8.97;;
7402;SDS011;3742;48.770;11.440;2022-12-04T07:56:31;10.37;;;7.93;;
7402;SDS011;3742;48.770;11.440;2022-12-04T07:59:00;11.57;;;9.30;;
7402;SDS011;3742;48.770;11.440;2022-12-04T08:01:29;11.03;;;9.60;;
7402;SDS011;3742;48.770;11.440;2022-12-04T08:03:59;12.33;;;8.73;;
7402;SDS011;3742;48.770;11.440;2022-12-04T08:06:31;10.50;;;8.77;;
7402;SDS011;3742;48.770;11.440;2022-12-04T08:09:02;10.67;;;9.17;;
7402;SDS011;3742;48.770;11.440;2022-12-04T08:11:36;12.03;;;9.10;;
7402;SDS011;3742;48.770;11.440;2022-12-04T08:14:05;11.83;;;9.60;;
7402;SDS011;3742;48.770;11.440;2022-12-04T08:16:35;10.77;;;8.70;;
7402;SDS011;3742;48.770;11.440;2022-12-04T08:19:04;10.13;;;8.40;;
7402;SDS011;3742;48.770;11.440;2022-12-04T08:21:34;11.07;;;8.83;;
7402;SDS011;3742;48.770;11.440;2022-12-04T08:24:02;10.03;;;8.13;;
7402;SDS011;3742;48.770;11.440;2022-12-04T08:26:32;10.43;;;8.47;;
7402;SDS011;3742;48.770;11.440;2022-12-04T08:29:00;11.60;;;9.87;;
7402;SDS011;3742;48.770;11.440;2022-12-04T08:31:30;10.63;;;8.87;;
7402;SDS011;3742;48.770;11.440;2022-12-04T08:34:01;11.30;;;8.27;;
7402;SDS011;3742;48.770;11.440;2022-12-04T08:36:31;10.93;;;8.47;;
7402;SDS011;3742;48.770;11.440;2022-12-04T08:39:02;11.03;;;8.17;;
7402;SDS011;3742;48.770;11.440;2022-12-04T08:41:30;10.50;;;8.23;;
7402;SDS011;3742;48.770;11.440;2022-12-04T08:43:59;8.60;;;7.13;;
7402;SDS011;3742;48.770;11.440;2022-12-04T08:46:28;8.60;;;7.33;;
7402;SDS011;3742;48.770;11.440;2022-12-04T08:48:56;10.47;;;7.17;;
7402;SDS011;3742;48.770;11.440;2022-12-04T08:51:27;9.47;;;8.07;;
7402;SDS011;3742;48.770;11.440;2022-12-04T08:53:57;10.20;;;7.70;;
7402;SDS011;3742;48.770;11.440;2022-12-04T08:56:29;10.03;;;7.80;;
7402;SDS011;3742;48.770;11.440;2022-12-04T08:58:58;9.30;;;7.50;;
7402;SDS011;3742;48.770;11.440;2022-12-04T09:01:27;10.20;;;7.87;;
7402;SDS011;3742;48.770;11.440;2022-12-04T09:03:56;11.77;;;8.67;;
7402;SDS011;3742;48.770;11.440;2022-12-04T09:06:25;11.47;;;9.13;;
7402;SDS011;3742;48.770;11.440;2022-12-04T09:08:54;12.80;;;10.67;;
7402;SDS011;3742;48.770;11.440;2022-12-04T09:11:24;15.37;;;10.47;;
7402;SDS011;3742;48.770;11.440;2022-12-04T09:13:55;12.63;;;9.87;;
7402;SDS011;3742;48.770;11.440;2022-12-04T09:16:24;13.23;;;10.23;;
7402;SDS011;3742;48.770;11.440;2022-12-04T09:18:53;14.70;;;8.37;;
7402;SDS011;3742;48.770;11.440;2022-12-04T09:21:23;10.43;;;8.10;;
7402;SDS011;3742;48.770;11.440;2022-12-04T09:23:52;10.47;;;8.33;;
7402;SDS011;3742;48.770;11.440;2022-12-04T09:26:21;10.33;;;8.90;;
7402;SDS011;3742;48.770;11.440;2022-12-04T09:28:51;10.23;;;8.37;;
7402;SDS011;3742;48.770;11.440;2022-12-04T09:31:22;10.10;;;9.00;;
7402;SDS011;3742;48.770;11.440;2022-12-04T09:33:51;11.53;;;9.20;;
7402;SDS011;3742;48.770;11.440;2022-12-04T09:36:20;13.50;;;10.83;;
7402;SDS011;3742;48.770;11.440;2022-12-04T09:38:49;14.40;;;11.63;;
7402;SDS011;3742;48.770;11.440;2022-12-04T09:44:18;15.43;;;12.53;;
7402;SDS011;3742;48.770;11.440;2022-12-04T09:46:51;12.97;;;10.57;;
7402;SDS011;3742;48.770;11.440;2022-12-04T09:49:22;14.03;;;10.83;;
7402;SDS011;3742;48.770;11.440;2022-12-04T09:51:55;14.30;;;11.63;;
7402;SDS011;3742;48.770;11.440;2022-12-04T09:54:27;11.63;;;9.60;;
7402;SDS011;3742;48.770;11.440;2022-12-04T09:57:00;10.13;;;8.23;;
7402;SDS011;3742;48.770;11.440;2022-12-04T09:59:30;7.93;;;7.00;;
7402;SDS011;3742;48.770;11.440;2022-12-04T10:02:01;9.03;;;7.00;;
7402;SDS011;3742;48.770;11.440;2022-12-04T10:04:31;8.80;;;7.77;;
7402;SDS011;3742;48.770;11.440;2022-12-04T10:07:01;12.33;;;9.03;;
7402;SDS011;3742;48.770;11.440;2022-12-04T10:09:35;12.83;;;8.23;;
7402;SDS011;3742;48.770;11.440;2022-12-04T10:12:09;12.10;;;9.33;;
7402;SDS011;3742;48.770;11.440;2022-12-04T10:14:49;9.60;;;7.63;;
7402;SDS011;3742;48.770;11.440;2022-12-04T10:20:24;8.37;;;6.93;;
7402;SDS011;3742;48.770;11.440;2022-12-04T10:23:00;9.83;;;7.47;;
7402;SDS011;3742;48.770;11.440;2022-12-04T10:25:39;8.60;;;7.10;;
7402;SDS011;3742;48.770;11.440;2022-12-04T10:28:10;7.57;;;6.70;;
7402;SDS011;3742;48.770;11.440;2022-12-04T10:30:46;8.90;;;7.83;;
7402;SDS011;3742;48.770;11.440;2022-12-04T10:33:18;7.90;;;6.83;;
7402;SDS011;3742;48.770;11.440;2022-12-04T10:35:49;7.53;;;6.53;;
7402;SDS011;3742;48.770;11.440;2022-12-04T10:38:22;8.67;;;7.70;;
7402;SDS011;3742;48.770;11.440;2022-12-04T10:40:55;10.30;;;8.43;;
7402;SDS011;3742;48.770;11.440;2022-12-04T10:43:27;8.67;;;7.57;;
7402;SDS011;3742;48.770;11.440;2022-12-04T10:45:59;8.07;;;7.27;;
7402;SDS011;3742;48.770;11.440;2022-12-04T10:48:30;11.73;;;9.77;;
7402;SDS011;3742;48.770;11.440;2022-12-04T10:51:00;7.53;;;6.73;;
7402;SDS011;3742;48.770;11.440;2022-12-04T10:53:30;8.60;;;7.23;;
7402;SDS011;3742;48.770;11.440;2022-12-04T10:56:09;10.30;;;8.27;;
7402;SDS011;3742;48.770;11.440;2022-12-04T10:58:39;9.73;;;8.07;;
7402;SDS011;3742;48.770;11.440;2022-12-04T11:01:09;9.00;;;8.10;;
7402;SDS011;3742;48.770;11.440;2022-12-04T11:03:43;8.73;;;7.83;;
7402;SDS011;3742;48.770;11.440;2022-12-04T11:06:14;11.17;;;9.57;;
7402;SDS011;3742;48.770;11.440;2022-12-04T11:08:43;11.67;;;9.53;;
7402;SDS011;3742;48.770;11.440;2022-12-04T11:11:21;9.63;;;8.70;;
7402;SDS011;3742;48.770;11.440;2022-12-04T11:13:59;9.60;;;8.63;;
7402;SDS011;3742;48.770;11.440;2022-12-04T11:16:31;10.70;;;8.13;;
7402;SDS011;3742;48.770;11.440;2022-12-04T11:19:16;14.07;;;9.50;;
7402;SDS011;3742;48.770;11.440;2022-12-04T11:21:46;24.20;;;13.87;;
7402;SDS011;3742;48.770;11.440;2022-12-04T11:24:21;20.80;;;13.40;;
7402;SDS011;3742;48.770;11.440;2022-12-04T11:26:59;16.37;;;12.63;;
7402;SDS011;3742;48.770;11.440;2022-12-04T11:29:29;10.00;;;9.00;;
7402;SDS011;3742;48.770;11.440;2022-12-04T11:31:59;8.10;;;7.30;;
7402;SDS011;3742;48.770;11.440;2022-12-04T11:34:35;10.63;;;9.13;;
7402;SDS011;3742;48.770;11.440;2022-12-04T11:37:14;8.40;;;7.50;;
7402;SDS011;3742;48.770;11.440;2022-12-04T11:39:45;8.40;;;7.53;;
7402;SDS011;3742;48.770;11.440;2022-12-04T11:42:15;9.13;;;7.80;;
7402;SDS011;3742;48.770;11.440;2022-12-04T11:44:50;7.30;;;6.53;;
7402;SDS011;3742;48.770;11.440;2022-12-04T11:47:21;8.90;;;7.80;;
7402;SDS011;3742;48.770;11.440;2022-12-04T11:49:57;9.30;;;8.30;;
7402;SDS011;3742;48.770;11.440;2022-12-04T11:52:37;11.33;;;9.17;;
7402;SDS011;3742;48.770;11.440;2022-12-04T11:55:20;11.53;;;8.07;;
7402;SDS011;3742;48.770;11.440;2022-12-04T11:58:00;11.23;;;8.33;;
7402;SDS011;3742;48.770;11.440;2022-12-04T12:00:41;9.13;;;7.80;;
7402;SDS011;3742;48.770;11.440;2022-12-04T12:03:14;9.13;;;7.83;;
7402;SDS011;3742;48.770;11.440;2022-12-04T12:05:50;8.10;;;7.27;;
7402;SDS011;3742;48.770;11.440;2022-12-04T12:08:30;7.87;;;6.97;;
7402;SDS011;3742;48.770;11.440;2022-12-04T12:11:08;8.40;;;7.27;;
7402;SDS011;3742;48.770;11.440;2022-12-04T12:13:42;13.10;;;9.13;;
7402;SDS011;3742;48.770;11.440;2022-12-04T12:16:17;11.17;;;9.23;;
7402;SDS011;3742;48.770;11.440;2022-12-04T12:18:52;9.50;;;8.20;;
7402;SDS011;3742;48.770;11.440;2022-12-04T12:21:29;8.23;;;7.33;;
7402;SDS011;3742;48.770;11.440;2022-12-04T12:24:11;8.13;;;7.33;;
7402;SDS011;3742;48.770;11.440;2022-12-04T12:26:48;14.37;;;10.17;;
7402;SDS011;3742;48.770;11.440;2022-12-04T12:29:26;18.80;;;12.93;;
7402;SDS011;3742;48.770;11.440;2022-12-04T12:32:07;14.93;;;10.70;;
7402;SDS011;3742;48.770;11.440;2022-12-04T12:34:41;16.47;;;10.60;;
7402;SDS011;3742;48.770;11.440;2022-12-04T12:37:15;42.50;;;23.47;;
7402;SDS011;3742;48.770;11.440;2022-12-04T12:39:48;21.90;;;13.97;;
7402;SDS011;3742;48.770;11.440;2022-12-04T12:42:19;26.77;;;16.43;;
7402;SDS011;3742;48.770;11.440;2022-12-04T12:44:52;16.43;;;10.43;;
7402;SDS011;3742;48.770;11.440;2022-12-04T12:47:26;21.80;;;12.57;;
7402;SDS011;3742;48.770;11.440;2022-12-04T12:49:57;18.07;;;12.30;;
7402;SDS011;3742;48.770;11.440;2022-12-04T12:52:31;12.73;;;9.37;;
7402;SDS011;3742;48.770;11.440;2022-12-04T12:55:02;12.10;;;8.40;;
7402;SDS011;3742;48.770;11.440;2022-12-04T12:57:38;12.97;;;9.27;;
7402;SDS011;3742;48.770;11.440;2022-12-04T13:00:12;9.20;;;7.63;;
7402;SDS011;3742;48.770;11.440;2022-12-04T13:02:44;8.37;;;7.07;;
7402;SDS011;3742;48.770;11.440;2022-12-04T13:05:16;7.53;;;6.73;;
7402;SDS011;3742;48.770;11.440;2022-12-04T13:07:50;6.93;;;6.23;;
7402;SDS011;3742;48.770;11.440;2022-12-04T13:10:22;7.93;;;7.10;;
7402;SDS011;3742;48.770;11.440;2022-12-04T13:12:53;8.50;;;7.47;;
7402;SDS011;3742;48.770;11.440;2022-12-04T13:15:27;9.27;;;7.17;;
7402;SDS011;3742;48.770;11.440;2022-12-04T13:17:58;8.27;;;7.43;;
7402;SDS011;3742;48.770;11.440;2022-12-04T13:20:35;8.83;;;7.17;;
7402;SDS011;3742;48.770;11.440;2022-12-04T13:23:15;10.60;;;7.87;;
7402;SDS011;3742;48.770;11.440;2022-12-04T13:25:51;10.13;;;7.63;;
7402;SDS011;3742;48.770;11.440;2022-12-04T13:28:29;11.17;;;7.97;;
7402;SDS011;3742;48.770;11.440;2022-12-04T13:31:06;10.17;;;7.97;;
7402;SDS011;3742;48.770;11.440;2022-12-04T13:33:53;9.57;;;7.73;;
7402;SDS011;3742;48.770;11.440;2022-12-04T13:36:34;8.40;;;7.23;;
7402;SDS011;3742;48.770;11.440;2022-12-04T13:42:19;10.17;;;8.47;;
7402;SDS011;3742;48.770;11.440;2022-12-04T13:44:53;19.33;;;12.10;;
7402;SDS011;3742;48.770;11.440;2022-12-04T13:47:24;11.40;;;8.27;;
7402;SDS011;3742;48.770;11.440;2022-12-04T13:50:04;10.57;;;8.00;;
7402;SDS011;3742;48.770;11.440;2022-12-04T13:52:36;8.87;;;7.57;;
7402;SDS011;3742;48.770;11.440;2022-12-04T13:57:56;9.77;;;7.43;;
7402;SDS011;3742;48.770;11.440;2022-12-04T14:00:28;10.87;;;8.67;;
7402;SDS011;3742;48.770;11.440;2022-12-04T14:02:59;10.13;;;8.43;;
7402;SDS011;3742;48.770;11.440;2022-12-04T14:05:31;10.67;;;8.40;;
7402;SDS011;3742;48.770;11.440;2022-12-04T14:08:07;9.70;;;7.80;;
7402;SDS011;3742;48.770;11.440;2022-12-04T14:10:57;8.90;;;7.60;;
7402;SDS011;3742;48.770;11.440;2022-12-04T14:13:28;9.20;;;8.00;;
7402;SDS011;3742;48.770;11.440;2022-12-04T14:16:04;16.27;;;10.27;;
7402;SDS011;3742;48.770;11.440;2022-12-04T14:18:36;13.20;;;9.83;;
7402;SDS011;3742;48.770;11.440;2022-12-04T14:21:05;12.63;;;8.53;;
7402;SDS011;3742;48.770;11.440;2022-12-04T14:23:35;9.20;;;8.17;;
7402;SDS011;3742;48.770;11.440;2022-12-04T14:26:16;9.40;;;8.20;;
7402;SDS011;3742;48.770;11.440;2022-12-04T14:28:46;10.57;;;8.57;;
7402;SDS011;3742;48.770;11.440;2022-12-04T14:31:18;10.00;;;8.90;;
7402;SDS011;3742;48.770;11.440;2022-12-04T14:33:51;11.30;;;8.63;;
7402;SDS011;3742;48.770;11.440;2022-12-04T14:36:22;10.50;;;8.63;;
7402;SDS011;3742;48.770;11.440;2022-12-04T14:38:55;12.43;;;8.50;;
7402;SDS011;3742;48.770;11.440;2022-12-04T14:41:30;10.00;;;8.70;;
7402;SDS011;3742;48.770;11.440;2022-12-04T14:43:59;10.87;;;9.00;;
7402;SDS011;3742;48.770;11.440;2022-12-04T14:46:33;9.20;;;8.23;;
7402;SDS011;3742;48.770;11.440;2022-12-04T14:49:10;11.40;;;9.10;;
7402;SDS011;3742;48.770;11.440;2022-12-04T14:51:48;14.73;;;12.07;;
7402;SDS011;3742;48.770;11.440;2022-12-04T14:54:24;12.60;;;10.23;;
7402;SDS011;3742;48.770;11.440;2022-12-04T14:57:02;12.30;;;9.43;;
7402;SDS011;3742;48.770;11.440;2022-12-04T14:59:41;10.27;;;8.73;;
7402;SDS011;3742;48.770;11.440;2022-12-04T15:02:13;12.10;;;9.10;;
7402;SDS011;3742;48.770;11.440;2022-12-04T15:04:44;12.17;;;9.60;;
7402;SDS011;3742;48.770;11.440;2022-12-04T15:07:18;11.40;;;9.40;;
7402;SDS011;3742;48.770;11.440;2022-12-04T15:09:50;10.90;;;9.80;;
7402;SDS011;3742;48.770;11.440;2022-12-04T15:12:41;11.47;;;9.53;;
7402;SDS011;3742;48.770;11.440;2022-12-04T15:15:16;11.20;;;9.90;;
7402;SDS011;3742;48.770;11.440;2022-12-04T15:17:54;11.63;;;9.67;;
7402;SDS011;3742;48.770;11.440;2022-12-04T15:20:27;12.10;;;9.80;;
7402;SDS011;3742;48.770;11.440;2022-12-04T15:23:05;11.63;;;9.23;;
7402;SDS011;3742;48.770;11.440;2022-12-04T15:25:35;10.37;;;9.13;;